Time;durP1;ratioP1;P1;durP2;ratioP2;P2;SDS_P1;SDS_P2;PMS_P1;PMS_P2;Temp;Humidity;BMP_temperature;BMP_pressure;BME280_temperature;BME280_humidity;BME280_pressure;Samples;Min_cycle;Max_cycle;Signal;HPM_P1;HPM_P2
2023/01/15 00:00:38;;;;;;;1.40;1.30;;;;;;;;;;5073588;28;20762;-74
2023/01/15 00:03:03;;;;;;;1.20;0.90;;;;;;;;;;5074734;28;20273;-73
2023/01/15 00:05:28;;;;;;;1.70;0.87;;;;;;;;;;5074741;28;20221;-73
2023/01/15 00:07:54;;;;;;;5.27;1.50;;;;;;;;;;5074729;28;20205;-72
2023/01/15 00:10:20;;;;;;;9.13;1.80;;;;;;;;;;5074591;28;20166;-74
2023/01/15 00:12:46;;;;;;;1.40;1.10;;;;;;;;;;5073716;28;20545;-73
2023/01/15 00:15:11;;;;;;;1.83;1.27;;;;;;;;;;5074209;28;20602;-72
2023/01/15 00:17:37;;;;;;;2.80;1.70;;;;;;;;;;5074495;28;20699;-73
2023/01/15 00:20:03;;;;;;;3.07;2.37;;;;;;;;;;5074351;28;20242;-74
2023/01/15 00:22:28;;;;;;;1.57;1.03;;;;;;;;;;5073866;28;20557;-74
2023/01/15 00:27:38;;;;;;;1.10;0.83;;;;;;;;;;5074504;28;20200;-73
2023/01/15 00:30:06;;;;;;;1.20;1.10;;;;;;;;;;5074176;28;20417;-72
2023/01/15 00:32:31;;;;;;;1.23;1.00;;;;;;;;;;5073305;28;20844;-73
2023/01/15 00:35:00;;;;;;;1.60;1.00;;;;;;;;;;5074136;28;20485;-73
2023/01/15 00:37:26;;;;;;;1.40;1.03;;;;;;;;;;5074297;28;20249;-73
2023/01/15 00:39:51;;;;;;;1.77;1.10;;;;;;;;;;5074685;28;20904;-74
2023/01/15 00:42:17;;;;;;;1.80;1.20;;;;;;;;;;5073530;28;20477;-74
2023/01/15 00:44:42;;;;;;;1.60;1.00;;;;;;;;;;5074969;28;20187;-74
2023/01/15 00:47:13;;;;;;;1.60;1.00;;;;;;;;;;5056483;28;20208;-75
2023/01/15 00:49:39;;;;;;;2.10;1.23;;;;;;;;;;5073221;28;20174;-74
2023/01/15 00:52:04;;;;;;;1.60;1.03;;;;;;;;;;5073000;28;20885;-73
2023/01/15 00:54:31;;;;;;;1.40;1.07;;;;;;;;;;5074342;28;20239;-74
2023/01/15 00:56:57;;;;;;;1.20;0.90;;;;;;;;;;5073964;28;20634;-73
2023/01/15 00:59:23;;;;;;;1.40;1.10;;;;;;;;;;5074247;28;20416;-73
2023/01/15 01:01:48;;;;;;;2.60;1.00;;;;;;;;;;5073644;28;20257;-73
2023/01/15 01:04:14;;;;;;;9.40;1.53;;;;;;;;;;5074665;28;20190;-74
2023/01/15 01:06:39;;;;;;;4.17;1.37;;;;;;;;;;5073937;28;20273;-73
2023/01/15 01:09:04;;;;;;;1.60;1.20;;;;;;;;;;5074132;28;20219;-73
2023/01/15 01:11:33;;;;;;;2.50;1.20;;;;;;;;;;5073404;28;20162;-73
2023/01/15 01:14:00;;;;;;;3.17;1.20;;;;;;;;;;5073773;28;20213;-72
2023/01/15 01:16:29;;;;;;;1.97;0.97;;;;;;;;;;5073807;28;20419;-73
2023/01/15 01:18:56;;;;;;;4.80;1.80;;;;;;;;;;5073630;28;20469;-72
2023/01/15 01:21:22;;;;;;;2.93;1.20;;;;;;;;;;5073253;28;20417;-72
2023/01/15 01:23:47;;;;;;;3.23;1.20;;;;;;;;;;5077577;28;20481;-73
2023/01/15 01:26:13;;;;;;;3.73;1.20;;;;;;;;;;5075098;28;20659;-71
2023/01/15 01:28:39;;;;;;;7.10;1.37;;;;;;;;;;5074821;28;20177;-72
2023/01/15 01:31:06;;;;;;;2.50;1.20;;;;;;;;;;5073635;28;20178;-74
2023/01/15 01:33:31;;;;;;;3.13;0.93;;;;;;;;;;5073609;28;21094;-72
2023/01/15 01:35:57;;;;;;;5.00;1.87;;;;;;;;;;5073644;28;20479;-73
2023/01/15 01:38:22;;;;;;;1.20;0.90;;;;;;;;;;5073102;28;20166;-73
2023/01/15 01:40:48;;;;;;;1.30;0.90;;;;;;;;;;5073054;28;20170;-73
2023/01/15 01:43:20;;;;;;;1.20;0.90;;;;;;;;;;5072966;28;20220;-72
2023/01/15 01:45:45;;;;;;;1.70;1.07;;;;;;;;;;5074115;28;20250;-73
2023/01/15 01:48:12;;;;;;;2.07;1.07;;;;;;;;;;5073817;28;20436;-73
2023/01/15 01:50:38;;;;;;;3.40;1.40;;;;;;;;;;5072699;28;20178;-73
2023/01/15 01:53:16;;;;;;;2.17;1.00;;;;;;;;;;5073685;28;20397;-74
2023/01/15 01:55:42;;;;;;;3.40;1.30;;;;;;;;;;5038807;28;20411;-73
2023/01/15 01:58:09;;;;;;;1.20;1.00;;;;;;;;;;5073320;28;20990;-73
2023/01/15 02:00:37;;;;;;;2.40;1.20;;;;;;;;;;5073145;28;20182;-73
2023/01/15 02:03:06;;;;;;;2.80;1.03;;;;;;;;;;5071755;28;20470;-73
2023/01/15 02:05:34;;;;;;;2.70;1.10;;;;;;;;;;5073736;28;20463;-72
2023/01/15 02:08:00;;;;;;;5.70;1.43;;;;;;;;;;5058084;28;20807;-74
2023/01/15 02:10:26;;;;;;;2.37;0.90;;;;;;;;;;5052288;28;20402;-73
2023/01/15 02:13:44;;;;;;;3.70;1.10;;;;;;;;;;5053173;28;20434;-73
2023/01/15 02:16:15;;;;;;;1.60;1.00;;;;;;;;;;5016034;28;20504;-73
2023/01/15 02:19:04;;;;;;;1.20;0.90;;;;;;;;;;5052407;28;20472;-73
2023/01/15 02:22:10;;;;;;;1.13;0.90;;;;;;;;;;5051590;28;20925;-72
2023/01/15 02:24:51;;;;;;;3.70;3.33;;;;;;;;;;5052283;28;20520;-73
2023/01/15 02:27:20;;;;;;;7.57;1.20;;;;;;;;;;5052600;28;20449;-73
2023/01/15 02:30:30;;;;;;;2.60;1.00;;;;;;;;;;5055898;28;20507;-73
2023/01/15 02:33:03;;;;;;;3.07;0.97;;;;;;;;;;5016092;28;20758;-73
2023/01/15 02:35:38;;;;;;;3.43;1.10;;;;;;;;;;5072453;28;21139;-73
2023/01/15 02:38:08;;;;;;;1.10;1.00;;;;;;;;;;5072172;28;20400;-73
2023/01/15 02:40:36;;;;;;;1.17;0.80;;;;;;;;;;5071788;28;20409;-72
2023/01/15 02:43:03;;;;;;;4.47;2.83;;;;;;;;;;5071897;28;20406;-73
2023/01/15 02:45:32;;;;;;;1.67;0.90;;;;;;;;;;5072018;28;20552;-73
2023/01/15 02:48:04;;;;;;;3.13;1.10;;;;;;;;;;5072239;28;20404;-73
2023/01/15 02:50:36;;;;;;;3.63;1.83;;;;;;;;;;5071525;28;20420;-73
2023/01/15 02:53:06;;;;;;;1.87;1.20;;;;;;;;;;5072309;28;20420;-73
2023/01/15 02:55:37;;;;;;;1.23;0.90;;;;;;;;;;5072715;28;20455;-73
2023/01/15 02:58:07;;;;;;;4.93;1.10;;;;;;;;;;5072684;28;20428;-74
2023/01/15 03:00:37;;;;;;;2.07;0.90;;;;;;;;;;5071516;28;20535;-73
2023/01/15 03:03:12;;;;;;;1.47;1.00;;;;;;;;;;5071951;28;20440;-73
2023/01/15 03:06:09;;;;;;;1.70;1.17;;;;;;;;;;5072350;28;20777;-73
2023/01/15 03:08:35;;;;;;;1.40;1.03;;;;;;;;;;5036399;28;20429;-74
2023/01/15 03:11:11;;;;;;;1.60;0.90;;;;;;;;;;5051567;28;20890;-73
2023/01/15 03:13:47;;;;;;;1.90;1.00;;;;;;;;;;5063051;28;20202;-72
2023/01/15 03:16:33;;;;;;;2.43;0.90;;;;;;;;;;5053064;28;20497;-72
2023/01/15 03:19:22;;;;;;;0.97;0.77;;;;;;;;;;5051847;28;20463;-73
2023/01/15 03:22:00;;;;;;;1.70;0.97;;;;;;;;;;5051373;28;20402;-74
2023/01/15 03:24:38;;;;;;;1.80;1.10;;;;;;;;;;5052014;28;20451;-73
2023/01/15 03:27:03;;;;;;;1.60;1.10;;;;;;;;;;5051900;28;21085;-73
2023/01/15 03:29:33;;;;;;;1.10;0.87;;;;;;;;;;5052802;28;20420;-72
2023/01/15 03:31:59;;;;;;;1.20;0.80;;;;;;;;;;5070621;28;20212;-72
2023/01/15 03:34:40;;;;;;;3.50;0.90;;;;;;;;;;5071379;28;20439;-74
2023/01/15 03:37:06;;;;;;;5.20;1.00;;;;;;;;;;5055799;28;20412;-72
2023/01/15 03:39:32;;;;;;;1.30;0.90;;;;;;;;;;5071461;28;20492;-73
2023/01/15 03:42:00;;;;;;;3.63;1.10;;;;;;;;;;5070971;28;20228;-72
2023/01/15 03:44:36;;;;;;;3.80;0.90;;;;;;;;;;5072070;28;20213;-73
2023/01/15 03:47:19;;;;;;;2.30;0.90;;;;;;;;;;5072265;28;20975;-73
2023/01/15 03:50:04;;;;;;;1.67;1.00;;;;;;;;;;5071148;28;20423;-72
2023/01/15 03:52:46;;;;;;;2.80;0.80;;;;;;;;;;5071472;28;20496;-73
2023/01/15 03:55:27;;;;;;;8.00;1.00;;;;;;;;;;5071666;28;20428;-73
2023/01/15 03:58:16;;;;;;;1.50;0.80;;;;;;;;;;5072035;28;20405;-73
2023/01/15 04:00:45;;;;;;;5.90;1.27;;;;;;;;;;5072184;28;20924;-74
2023/01/15 04:03:13;;;;;;;1.20;0.93;;;;;;;;;;5072963;28;20404;-73
2023/01/15 04:05:39;;;;;;;1.07;0.83;;;;;;;;;;5075722;28;20506;-73
2023/01/15 04:08:05;;;;;;;1.00;0.80;;;;;;;;;;5071537;28;20476;-73
2023/01/15 04:10:31;;;;;;;2.50;1.10;;;;;;;;;;5072304;28;20452;-73
2023/01/15 04:12:56;;;;;;;1.10;0.80;;;;;;;;;;5054429;28;20800;-73
2023/01/15 04:15:22;;;;;;;1.37;0.80;;;;;;;;;;5078349;22;20607;-67
2023/01/15 04:17:47;;;;;;;5.20;1.00;;;;;;;;;;5048853;28;20174;-67
2023/01/15 04:20:12;;;;;;;1.20;1.00;;;;;;;;;;5048908;28;20267;-68
2023/01/15 04:22:38;;;;;;;3.50;0.93;;;;;;;;;;5048686;28;20179;-65
2023/01/15 04:25:05;;;;;;;1.40;0.77;;;;;;;;;;5049384;28;20217;-66
2023/01/15 04:27:31;;;;;;;1.23;0.73;;;;;;;;;;5052608;28;20171;-66
2023/01/15 04:29:56;;;;;;;3.70;1.00;;;;;;;;;;5052399;28;20439;-67
2023/01/15 04:32:22;;;;;;;1.30;0.80;;;;;;;;;;5052279;28;20175;-66
2023/01/15 04:34:47;;;;;;;1.90;0.93;;;;;;;;;;5052088;28;20267;-66
2023/01/15 04:37:13;;;;;;;3.23;0.80;;;;;;;;;;5052152;28;20183;-67
2023/01/15 04:39:39;;;;;;;1.30;0.80;;;;;;;;;;5052197;28;20178;-68
2023/01/15 04:44:48;;;;;;;1.00;0.80;;;;;;;;;;5052441;28;20252;-67
2023/01/15 04:47:14;;;;;;;1.50;0.80;;;;;;;;;;5052032;28;20468;-67
2023/01/15 04:49:39;;;;;;;1.23;0.90;;;;;;;;;;5051843;28;20171;-66
2023/01/15 04:52:05;;;;;;;2.30;1.07;;;;;;;;;;5051465;28;20589;-67
2023/01/15 04:54:30;;;;;;;1.67;0.80;;;;;;;;;;5052094;28;20191;-66
2023/01/15 04:56:56;;;;;;;1.10;0.80;;;;;;;;;;5051985;28;20163;-66
2023/01/15 04:59:24;;;;;;;1.60;0.87;;;;;;;;;;5051855;28;20213;-66
2023/01/15 05:01:50;;;;;;;1.40;0.90;;;;;;;;;;5051419;28;20210;-66
2023/01/15 05:04:16;;;;;;;2.50;0.93;;;;;;;;;;5051629;28;20465;-67
2023/01/15 05:06:41;;;;;;;4.90;1.50;;;;;;;;;;5047048;28;20660;-67
2023/01/15 05:09:07;;;;;;;2.73;1.30;;;;;;;;;;5031771;28;20421;-66
2023/01/15 05:11:37;;;;;;;2.77;1.27;;;;;;;;;;5036129;28;20859;-66
2023/01/15 05:14:03;;;;;;;2.10;1.10;;;;;;;;;;5051152;28;20552;-67
2023/01/15 05:16:29;;;;;;;1.50;0.90;;;;;;;;;;5046409;28;20767;-67
2023/01/15 05:18:58;;;;;;;4.80;1.40;;;;;;;;;;5031560;28;20407;-66
2023/01/15 05:21:26;;;;;;;1.73;1.03;;;;;;;;;;5030944;28;20281;-66
2023/01/15 05:23:54;;;;;;;2.50;0.90;;;;;;;;;;5031466;28;20418;-66
2023/01/15 05:26:21;;;;;;;2.10;0.90;;;;;;;;;;5031589;28;20462;-66
2023/01/15 05:28:47;;;;;;;1.30;1.20;;;;;;;;;;5031371;28;20418;-67
2023/01/15 05:31:14;;;;;;;1.00;0.77;;;;;;;;;;5046196;28;20958;-69
2023/01/15 05:33:40;;;;;;;1.30;0.90;;;;;;;;;;5046724;28;20603;-66
2023/01/15 05:36:18;;;;;;;1.77;0.80;;;;;;;;;;5035065;28;20878;-66
2023/01/15 05:38:43;;;;;;;2.40;1.57;;;;;;;;;;5039144;28;20175;-68
2023/01/15 05:43:59;;;;;;;2.27;1.40;;;;;;;;;;5051036;28;20292;-66
2023/01/15 05:46:25;;;;;;;1.63;0.80;;;;;;;;;;5051057;28;20526;-66
2023/01/15 05:48:50;;;;;;;2.50;1.17;;;;;;;;;;5050754;28;20500;-66
2023/01/15 05:51:16;;;;;;;1.33;0.70;;;;;;;;;;5050526;28;20589;-67
2023/01/15 05:53:41;;;;;;;1.20;0.90;;;;;;;;;;5050850;28;20167;-67
2023/01/15 05:56:07;;;;;;;1.27;0.80;;;;;;;;;;5050722;28;20232;-67
2023/01/15 05:58:33;;;;;;;1.20;0.70;;;;;;;;;;5050760;28;20167;-67
2023/01/15 06:00:59;;;;;;;4.43;0.90;;;;;;;;;;5050236;28;20624;-67
2023/01/15 06:03:25;;;;;;;1.30;0.67;;;;;;;;;;5050462;28;20427;-66
2023/01/15 06:05:55;;;;;;;1.00;0.70;;;;;;;;;;5050712;28;20572;-66
2023/01/15 06:08:22;;;;;;;1.73;1.00;;;;;;;;;;5032737;28;20437;-66
2023/01/15 06:10:48;;;;;;;1.77;0.80;;;;;;;;;;5030562;28;20446;-66
2023/01/15 06:13:14;;;;;;;1.10;0.70;;;;;;;;;;5031012;28;20501;-66
2023/01/15 06:15:40;;;;;;;0.90;0.70;;;;;;;;;;5030966;28;20456;-66
2023/01/15 06:18:05;;;;;;;1.47;0.80;;;;;;;;;;5030971;28;20414;-66
2023/01/15 06:20:31;;;;;;;2.60;0.70;;;;;;;;;;5030500;28;20172;-66
2023/01/15 06:22:56;;;;;;;1.20;0.70;;;;;;;;;;5030299;28;20213;-66
2023/01/15 06:25:22;;;;;;;1.57;0.60;;;;;;;;;;5030537;28;20203;-67
2023/01/15 06:27:50;;;;;;;1.53;0.70;;;;;;;;;;5030450;28;20755;-67
2023/01/15 06:30:15;;;;;;;3.23;0.87;;;;;;;;;;5030587;28;20263;-67
2023/01/15 06:32:41;;;;;;;7.33;1.00;;;;;;;;;;5028919;28;21232;-67
2023/01/15 06:35:07;;;;;;;2.50;0.80;;;;;;;;;;5028173;28;20199;-67
2023/01/15 06:37:32;;;;;;;2.70;0.97;;;;;;;;;;5029959;28;20172;-67
2023/01/15 06:39:57;;;;;;;1.43;0.80;;;;;;;;;;5029930;28;20246;-66
2023/01/15 06:47:53;;;;;;;2.00;0.80;;;;;;;;;;5029385;28;20785;-66
2023/01/15 06:50:19;;;;;;;4.73;1.00;;;;;;;;;;5039189;28;20414;-66
2023/01/15 06:52:44;;;;;;;16.93;2.30;;;;;;;;;;5049068;28;20612;-66
2023/01/15 06:55:10;;;;;;;4.33;1.00;;;;;;;;;;5049147;28;20277;-67
2023/01/15 06:57:38;;;;;;;3.33;0.80;;;;;;;;;;5030858;28;21094;-66
2023/01/15 07:00:05;;;;;;;2.33;0.87;;;;;;;;;;5029681;28;20207;-66
2023/01/15 07:02:30;;;;;;;1.20;0.80;;;;;;;;;;5028778;28;20509;-66
2023/01/15 07:04:56;;;;;;;26.27;3.50;;;;;;;;;;5028874;28;20521;-66
2023/01/15 07:07:22;;;;;;;10.30;1.10;;;;;;;;;;5029482;28;20200;-66
2023/01/15 07:09:48;;;;;;;1.30;0.80;;;;;;;;;;5029668;28;20653;-68
2023/01/15 07:12:14;;;;;;;1.70;0.90;;;;;;;;;;5040012;28;20257;-66
2023/01/15 07:14:39;;;;;;;7.23;1.27;;;;;;;;;;5044260;28;20545;-66
2023/01/15 07:17:05;;;;;;;2.60;0.90;;;;;;;;;;5037393;28;20589;-66
2023/01/15 07:19:31;;;;;;;3.10;1.00;;;;;;;;;;5037484;28;20171;-66
2023/01/15 07:21:56;;;;;;;1.00;0.70;;;;;;;;;;5029870;28;20179;-66
2023/01/15 07:24:22;;;;;;;1.27;0.90;;;;;;;;;;5048599;28;20207;-66
2023/01/15 07:26:47;;;;;;;2.30;1.10;;;;;;;;;;5039530;28;20276;-67
2023/01/15 07:29:13;;;;;;;1.77;0.83;;;;;;;;;;5029240;28;20263;-67
2023/01/15 07:31:39;;;;;;;3.23;1.10;;;;;;;;;;5046647;28;20233;-67
2023/01/15 07:34:05;;;;;;;6.13;1.20;;;;;;;;;;5048158;28;20769;-67
2023/01/15 07:36:31;;;;;;;2.13;0.90;;;;;;;;;;5048174;28;20477;-68
2023/01/15 07:38:56;;;;;;;3.17;1.00;;;;;;;;;;5048656;28;20179;-66
2023/01/15 07:49:45;;;;;;;1.60;1.10;;;;;;;;;;5048506;28;20724;-66
2023/01/15 07:52:19;;;;;;;2.47;1.03;;;;;;;;;;5048279;28;20503;-67
2023/01/15 07:54:46;;;;;;;8.17;1.60;;;;;;;;;;5048702;28;20445;-66
2023/01/15 07:57:13;;;;;;;1.43;1.00;;;;;;;;;;5049096;28;20504;-66
2023/01/15 07:59:39;;;;;;;10.00;2.27;;;;;;;;;;5048609;28;20920;-66
2023/01/15 08:02:05;;;;;;;9.90;2.50;;;;;;;;;;5052036;28;20401;-66
2023/01/15 08:04:30;;;;;;;3.17;1.17;;;;;;;;;;5051914;28;20182;-67
2023/01/15 08:06:58;;;;;;;7.80;1.93;;;;;;;;;;5052511;28;20574;-66
2023/01/15 08:09:24;;;;;;;3.03;1.20;;;;;;;;;;5052521;28;20185;-67
2023/01/15 08:17:18;;;;;;;20.33;3.23;;;;;;;;;;5052493;28;20507;-66
2023/01/15 08:19:43;;;;;;;12.23;1.70;;;;;;;;;;5043769;28;20434;-66
2023/01/15 08:22:10;;;;;;;1.90;1.17;;;;;;;;;;5043132;28;20640;-66
2023/01/15 08:24:35;;;;;;;1.20;0.90;;;;;;;;;;5051629;28;20251;-67
2023/01/15 08:27:01;;;;;;;3.10;0.93;;;;;;;;;;5033698;28;20453;-66
2023/01/15 08:29:26;;;;;;;2.93;1.73;;;;;;;;;;5033004;28;20228;-67
2023/01/15 08:31:52;;;;;;;2.27;1.10;;;;;;;;;;5046782;28;20194;-66
2023/01/15 08:34:18;;;;;;;1.97;1.20;;;;;;;;;;5043118;28;20198;-66
2023/01/15 08:36:43;;;;;;;2.73;1.93;;;;;;;;;;5043481;28;20182;-67
2023/01/15 08:39:10;;;;;;;3.33;0.83;;;;;;;;;;5045983;28;20239;-66
2023/01/15 08:41:35;;;;;;;5.43;1.00;;;;;;;;;;5047656;28;20221;-66
2023/01/15 08:44:01;;;;;;;11.83;2.63;;;;;;;;;;5047666;28;21004;-67
2023/01/15 08:46:26;;;;;;;12.93;1.90;;;;;;;;;;5040604;28;20199;-66
2023/01/15 08:48:52;;;;;;;9.07;1.37;;;;;;;;;;5033420;28;20237;-66
2023/01/15 08:51:18;;;;;;;4.30;1.50;;;;;;;;;;5036330;28;20195;-66
2023/01/15 08:53:43;;;;;;;1.13;0.70;;;;;;;;;;5028694;28;20191;-66
2023/01/15 08:56:17;;;;;;;11.87;2.30;;;;;;;;;;5030701;28;20441;-66
2023/01/15 08:58:43;;;;;;;1.97;0.77;;;;;;;;;;5039593;28;20187;-66
2023/01/15 09:01:11;;;;;;;5.87;1.77;;;;;;;;;;5034886;28;20773;-66
2023/01/15 09:03:37;;;;;;;1.83;1.23;;;;;;;;;;5045148;28;20445;-66
2023/01/15 09:06:04;;;;;;;4.37;1.50;;;;;;;;;;5037916;28;20584;-67
2023/01/15 09:08:30;;;;;;;2.63;0.93;;;;;;;;;;5029781;28;20894;-67
2023/01/15 09:11:00;;;;;;;2.97;0.97;;;;;;;;;;5029423;28;20512;-67
2023/01/15 09:13:27;;;;;;;1.20;0.83;;;;;;;;;;5045406;28;20567;-68
2023/01/15 09:15:53;;;;;;;1.53;0.70;;;;;;;;;;5038319;28;20463;-66
2023/01/15 09:18:19;;;;;;;2.17;0.90;;;;;;;;;;5031385;28;20426;-68
2023/01/15 09:20:45;;;;;;;2.17;1.03;;;;;;;;;;5033983;28;20524;-67
2023/01/15 09:23:11;;;;;;;3.90;1.10;;;;;;;;;;5039778;28;20567;-68
2023/01/15 09:25:36;;;;;;;1.53;0.70;;;;;;;;;;5034868;28;20531;-66
2023/01/15 09:28:02;;;;;;;1.90;0.97;;;;;;;;;;5030310;28;20613;-66
2023/01/15 09:30:28;;;;;;;2.33;1.07;;;;;;;;;;5032461;28;20179;-67
2023/01/15 09:32:54;;;;;;;1.97;1.03;;;;;;;;;;5031178;28;20183;-67
2023/01/15 09:35:21;;;;;;;2.10;1.10;;;;;;;;;;5040296;28;20453;-66
2023/01/15 09:37:53;;;;;;;6.40;3.50;;;;;;;;;;5034173;28;20206;-67
2023/01/15 09:40:55;;;;;;;6.23;1.50;;;;;;;;;;5039133;28;20899;-67
2023/01/15 09:43:21;;;;;;;20.23;3.10;;;;;;;;;;4984083;28;20444;-67
2023/01/15 09:46:10;;;;;;;7.50;2.33;;;;;;;;;;5031826;28;20487;-68
2023/01/15 09:48:35;;;;;;;3.47;2.37;;;;;;;;;;4946244;29;20186;-67
2023/01/15 09:51:12;;;;;;;2.97;2.50;;;;;;;;;;4948625;28;20445;-67
2023/01/15 09:54:00;;;;;;;9.23;3.20;;;;;;;;;;4941273;29;20197;-68
2023/01/15 09:56:29;;;;;;;11.00;2.83;;;;;;;;;;4937387;29;20600;-68
2023/01/15 09:58:57;;;;;;;6.47;2.37;;;;;;;;;;4944749;29;20540;-68
2023/01/15 10:01:29;;;;;;;4.17;2.70;;;;;;;;;;4944453;28;20943;-68
2023/01/15 10:04:19;;;;;;;7.07;2.50;;;;;;;;;;4951684;28;20785;-67
2023/01/15 10:06:54;;;;;;;2.50;1.87;;;;;;;;;;4947008;29;20470;-68
2023/01/15 10:09:30;;;;;;;2.33;1.67;;;;;;;;;;4947124;29;20428;-66
2023/01/15 10:14:52;;;;;;;2.53;1.30;;;;;;;;;;4942151;28;20467;-66
2023/01/15 10:17:23;;;;;;;6.23;1.70;;;;;;;;;;4938305;29;21832;-66
2023/01/15 10:19:49;;;;;;;4.70;1.30;;;;;;;;;;4937605;29;20521;-65
2023/01/15 10:22:31;;;;;;;7.30;3.03;;;;;;;;;;4939185;28;20504;-67
2023/01/15 10:24:57;;;;;;;2.83;1.50;;;;;;;;;;4960942;28;21100;-65
2023/01/15 10:27:26;;;;;;;3.50;2.07;;;;;;;;;;5032666;28;20607;-65
2023/01/15 10:30:00;;;;;;;3.47;2.37;;;;;;;;;;5037148;28;20437;-66
2023/01/15 10:32:41;;;;;;;3.97;1.90;;;;;;;;;;5033299;28;20532;-66
2023/01/15 10:35:26;;;;;;;8.23;2.03;;;;;;;;;;5040607;28;20452;-67
2023/01/15 10:38:14;;;;;;;3.10;1.47;;;;;;;;;;5041403;28;20429;-66
2023/01/15 10:41:04;;;;;;;2.17;1.50;;;;;;;;;;5045010;28;20487;-65
2023/01/15 10:43:43;;;;;;;12.83;3.03;;;;;;;;;;5036676;28;20445;-66
2023/01/15 10:46:17;;;;;;;6.10;1.40;;;;;;;;;;5044096;28;20472;-65
2023/01/15 10:48:51;;;;;;;2.20;1.40;;;;;;;;;;5038673;28;20435;-67
2023/01/15 10:51:22;;;;;;;3.17;1.50;;;;;;;;;;5035604;28;20441;-65
2023/01/15 10:53:50;;;;;;;2.60;1.77;;;;;;;;;;5030967;28;20441;-66
2023/01/15 10:56:32;;;;;;;1.93;1.63;;;;;;;;;;5042178;28;20926;-65
2023/01/15 10:59:22;;;;;;;2.83;1.40;;;;;;;;;;5028472;28;20802;-65
2023/01/15 11:01:53;;;;;;;1.60;1.10;;;;;;;;;;5042716;28;20445;-65
2023/01/15 11:04:18;;;;;;;2.33;1.60;;;;;;;;;;5038024;28;20465;-65
2023/01/15 11:06:44;;;;;;;1.40;1.23;;;;;;;;;;5030718;28;20877;-65
2023/01/15 11:09:21;;;;;;;3.53;2.00;;;;;;;;;;5039304;28;20198;-65
2023/01/15 11:20:26;;;;;;;2.07;1.10;;;;;;;;;;5029752;28;20449;-66
2023/01/15 11:22:51;;;;;;;7.07;1.67;;;;;;;;;;5029791;28;20432;-67
2023/01/15 11:25:31;;;;;;;9.20;2.30;;;;;;;;;;5039441;28;21446;-65
2023/01/15 11:28:02;;;;;;;20.53;2.50;;;;;;;;;;5042079;28;20177;-66
2023/01/15 11:30:36;;;;;;;4.60;1.53;;;;;;;;;;5034835;28;20438;-65
2023/01/15 11:33:03;;;;;;;1.57;0.90;;;;;;;;;;5041743;28;20490;-66
2023/01/15 11:35:29;;;;;;;3.77;1.10;;;;;;;;;;5040061;28;20455;-66
2023/01/15 11:38:03;;;;;;;22.27;2.97;;;;;;;;;;5044186;28;20487;-66
2023/01/15 11:40:29;;;;;;;1.60;1.20;;;;;;;;;;5041417;28;20441;-65
2023/01/15 11:51:47;;;;;;;2.10;1.37;;;;;;;;;;4931492;29;21033;-67
2023/01/15 11:54:34;;;;;;;7.40;2.37;;;;;;;;;;4933462;29;20470;-68
2023/01/15 11:56:59;;;;;;;25.10;4.40;;;;;;;;;;4933603;28;20432;-68
2023/01/15 11:59:25;;;;;;;3.90;1.60;;;;;;;;;;4970919;28;20776;-67
2023/01/15 12:01:58;;;;;;;3.43;1.23;;;;;;;;;;4970707;28;20190;-66
2023/01/15 12:04:48;;;;;;;1.30;1.03;;;;;;;;;;4971852;28;20280;-66
2023/01/15 12:07:14;;;;;;;5.07;2.40;;;;;;;;;;4972847;28;20461;-67
2023/01/15 12:09:58;;;;;;;2.60;1.30;;;;;;;;;;4965073;28;20527;-67
2023/01/15 12:12:29;;;;;;;5.97;1.70;;;;;;;;;;4964841;28;20441;-67
2023/01/15 12:15:10;;;;;;;2.60;1.00;;;;;;;;;;4969885;28;20543;-66
2023/01/15 12:18:06;;;;;;;3.40;1.17;;;;;;;;;;4971500;28;20524;-67
2023/01/15 12:20:48;;;;;;;5.17;1.40;;;;;;;;;;4973680;28;20437;-66
2023/01/15 12:23:38;;;;;;;2.10;1.23;;;;;;;;;;4970628;28;20506;-66
2023/01/15 12:26:16;;;;;;;23.60;2.67;;;;;;;;;;4968524;28;20555;-66
2023/01/15 12:29:02;;;;;;;10.03;2.43;;;;;;;;;;4970455;28;20858;-67
2023/01/15 12:31:34;;;;;;;1.50;1.30;;;;;;;;;;4968320;28;20440;-67
2023/01/15 12:34:19;;;;;;;2.13;1.43;;;;;;;;;;4999936;28;20430;-67
2023/01/15 12:37:06;;;;;;;45.90;5.83;;;;;;;;;;5042917;28;20747;-67
2023/01/15 12:39:54;;;;;;;73.13;10.43;;;;;;;;;;5040090;28;20426;-67
2023/01/15 12:45:11;;;;;;;9.47;1.67;;;;;;;;;;5041518;28;20456;-68
2023/01/15 12:48:12;;;;;;;33.20;3.40;;;;;;;;;;5042513;28;20547;-67
2023/01/15 12:50:47;;;;;;;2.83;1.30;;;;;;;;;;5002137;28;20487;-66
2023/01/15 12:53:36;;;;;;;6.10;1.50;;;;;;;;;;5040762;28;20429;-65
2023/01/15 12:56:05;;;;;;;3.83;1.37;;;;;;;;;;5046824;28;20476;-67
2023/01/15 12:58:39;;;;;;;17.40;2.83;;;;;;;;;;5040964;28;20950;-67
2023/01/15 13:01:21;;;;;;;2.50;1.67;;;;;;;;;;5048597;28;20464;-67
2023/01/15 13:04:17;;;;;;;13.67;2.27;;;;;;;;;;5051597;28;20540;-67
2023/01/15 13:06:55;;;;;;;1.63;1.00;;;;;;;;;;5046833;28;20466;-67
2023/01/15 13:09:38;;;;;;;2.40;1.07;;;;;;;;;;5039175;28;20796;-67
2023/01/15 13:12:13;;;;;;;10.53;2.60;;;;;;;;;;5042148;28;20961;-68
2023/01/15 13:14:38;;;;;;;1.93;1.20;;;;;;;;;;5023745;28;20460;-67
2023/01/15 13:17:30;;;;;;;1.43;1.20;;;;;;;;;;5047144;28;20437;-66
2023/01/15 13:20:17;;;;;;;1.50;1.27;;;;;;;;;;5036796;28;20190;-68
2023/01/15 13:23:05;;;;;;;2.10;1.37;;;;;;;;;;5040619;28;20438;-65
2023/01/15 13:25:39;;;;;;;2.23;1.10;;;;;;;;;;5037275;28;20460;-65
2023/01/15 13:28:13;;;;;;;4.60;1.00;;;;;;;;;;5045913;28;20513;-65
2023/01/15 13:31:09;;;;;;;1.77;1.03;;;;;;;;;;5040412;28;20777;-67
2023/01/15 13:33:43;;;;;;;5.67;1.47;;;;;;;;;;5048074;28;20446;-65
2023/01/15 13:36:24;;;;;;;1.20;1.00;;;;;;;;;;5038870;28;20820;-65
2023/01/15 13:38:54;;;;;;;2.10;1.00;;;;;;;;;;5038792;28;20921;-66
2023/01/15 13:44:25;;;;;;;3.07;1.30;;;;;;;;;;5038922;28;20549;-66
2023/01/15 13:47:02;;;;;;;2.40;1.70;;;;;;;;;;5038961;28;20508;-65
2023/01/15 13:49:50;;;;;;;1.90;1.63;;;;;;;;;;5037233;28;20438;-66
2023/01/15 13:52:23;;;;;;;12.87;2.93;;;;;;;;;;5032776;28;20436;-65
2023/01/15 13:54:50;;;;;;;2.23;1.20;;;;;;;;;;5034798;28;20810;-66
2023/01/15 13:57:31;;;;;;;9.33;2.20;;;;;;;;;;5018835;28;20429;-65
2023/01/15 13:59:56;;;;;;;4.10;1.77;;;;;;;;;;5039708;28;20873;-66
2023/01/15 14:02:25;;;;;;;8.00;2.57;;;;;;;;;;5034800;28;20522;-66
2023/01/15 14:04:50;;;;;;;34.47;4.60;;;;;;;;;;5039667;28;20207;-65
2023/01/15 14:07:36;;;;;;;19.90;4.67;;;;;;;;;;5046225;28;20864;-67
2023/01/15 14:10:17;;;;;;;4.13;1.33;;;;;;;;;;5039994;28;20171;-66
2023/01/15 14:12:52;;;;;;;2.90;1.33;;;;;;;;;;5036961;28;20518;-66
2023/01/15 14:15:40;;;;;;;3.10;2.17;;;;;;;;;;5041006;28;20582;-65
2023/01/15 14:18:24;;;;;;;2.60;1.70;;;;;;;;;;5030433;28;20513;-65
2023/01/15 14:20:59;;;;;;;2.70;1.37;;;;;;;;;;5039991;28;20472;-65
2023/01/15 14:23:25;;;;;;;3.50;1.30;;;;;;;;;;5035099;28;20445;-66
2023/01/15 14:26:04;;;;;;;2.90;1.40;;;;;;;;;;5037766;28;20465;-65
2023/01/15 14:28:45;;;;;;;3.00;1.40;;;;;;;;;;5028694;28;20660;-66
2023/01/15 14:31:15;;;;;;;1.43;1.13;;;;;;;;;;5020869;28;20923;-66
2023/01/15 14:34:09;;;;;;;3.47;1.73;;;;;;;;;;5035793;28;20528;-67
2023/01/15 14:36:50;;;;;;;4.57;1.10;;;;;;;;;;5039055;28;20444;-67
2023/01/15 14:39:33;;;;;;;7.33;1.80;;;;;;;;;;5039169;28;20472;-66
2023/01/15 14:45:19;;;;;;;2.77;2.20;;;;;;;;;;5044973;28;20528;-66
2023/01/15 14:47:47;;;;;;;2.80;1.50;;;;;;;;;;5036569;28;20474;-65
2023/01/15 14:50:24;;;;;;;9.47;2.13;;;;;;;;;;5035274;28;20468;-65
2023/01/15 14:52:52;;;;;;;3.93;1.67;;;;;;;;;;5023396;28;20468;-66
2023/01/15 14:55:19;;;;;;;8.30;1.60;;;;;;;;;;5045059;28;20907;-66
2023/01/15 14:57:55;;;;;;;6.70;1.77;;;;;;;;;;5034234;28;20469;-67
2023/01/15 15:00:25;;;;;;;6.90;1.50;;;;;;;;;;5044338;28;20520;-67
2023/01/15 15:02:51;;;;;;;15.57;2.97;;;;;;;;;;5044784;28;20599;-68
2023/01/15 15:05:19;;;;;;;6.60;2.50;;;;;;;;;;5049602;28;20612;-66
2023/01/15 15:07:51;;;;;;;9.13;1.87;;;;;;;;;;5038338;28;20210;-66
2023/01/15 15:10:34;;;;;;;2.83;1.40;;;;;;;;;;5033012;28;20510;-67
2023/01/15 15:13:27;;;;;;;17.00;2.67;;;;;;;;;;5049214;28;20921;-68
2023/01/15 15:16:18;;;;;;;3.90;1.10;;;;;;;;;;5048462;28;20493;-66
2023/01/15 15:18:59;;;;;;;2.83;2.20;;;;;;;;;;5037560;28;21090;-65
2023/01/15 15:21:31;;;;;;;4.73;1.90;;;;;;;;;;5015791;28;20521;-67
2023/01/15 15:24:14;;;;;;;10.13;1.80;;;;;;;;;;5031802;28;20923;-67
2023/01/15 15:26:39;;;;;;;6.03;1.50;;;;;;;;;;5037426;28;20548;-65
2023/01/15 15:29:11;;;;;;;9.10;2.53;;;;;;;;;;5036205;28;20639;-68
2023/01/15 15:31:40;;;;;;;3.00;1.37;;;;;;;;;;5036485;28;20194;-66
2023/01/15 15:34:13;;;;;;;2.23;1.37;;;;;;;;;;5040796;28;20559;-67
2023/01/15 15:36:39;;;;;;;2.70;1.20;;;;;;;;;;5036242;28;20775;-67
2023/01/15 15:39:22;;;;;;;7.60;1.80;;;;;;;;;;5026369;28;20426;-67
2023/01/15 15:50:23;;;;;;;3.57;1.37;;;;;;;;;;5047132;28;20472;-66
2023/01/15 15:52:50;;;;;;;2.53;2.33;;;;;;;;;;5033293;28;20448;-66
2023/01/15 15:55:17;;;;;;;3.23;1.80;;;;;;;;;;5039290;28;20453;-67
2023/01/15 15:57:45;;;;;;;8.37;2.67;;;;;;;;;;5044939;28;20422;-65
2023/01/15 16:00:28;;;;;;;7.47;2.27;;;;;;;;;;5037077;28;21178;-66
2023/01/15 16:02:54;;;;;;;5.10;2.10;;;;;;;;;;5041463;28;20496;-67
2023/01/15 16:05:30;;;;;;;12.17;2.00;;;;;;;;;;5029715;28;20568;-68
2023/01/15 16:08:07;;;;;;;3.93;1.70;;;;;;;;;;5029102;28;20590;-67
2023/01/15 16:10:33;;;;;;;14.17;2.90;;;;;;;;;;5029005;28;20838;-67